createdAt,value
2023-02-13T00:00:51.934Z,87.40
2023-02-13T00:02:58.912Z,87.50
2023-02-13T00:05:06.195Z,87.40
2023-02-13T00:07:13.601Z,87.70
2023-02-13T00:09:20.762Z,87.90
2023-02-13T00:11:29.325Z,88.10
2023-02-13T00:13:37.788Z,88.00
2023-02-13T00:15:44.816Z,88.10
2023-02-13T00:17:51.946Z,87.80
2023-02-13T00:19:58.785Z,88.00
2023-02-13T00:22:06.003Z,88.20
2023-02-13T00:24:12.825Z,89.30
2023-02-13T00:26:20.980Z,89.80
2023-02-13T00:28:30.543Z,90.00
2023-02-13T00:30:37.799Z,89.90
2023-02-13T00:32:44.506Z,89.90
2023-02-13T00:34:51.292Z,89.60
2023-02-13T00:36:58.420Z,89.60
2023-02-13T00:39:05.549Z,89.80
2023-02-13T00:41:13.041Z,89.90
2023-02-13T00:43:20.497Z,90.40
2023-02-13T00:45:30.015Z,90.50
2023-02-13T00:47:36.781Z,90.40
2023-02-13T00:49:44.167Z,90.40
2023-02-13T00:51:51.043Z,90.40
2023-02-13T00:53:58.281Z,90.30
2023-02-13T00:56:05.253Z,90.50
2023-02-13T00:58:12.226Z,90.30
2023-02-13T01:00:20.078Z,90.20
2023-02-13T01:02:29.664Z,90.00
2023-02-13T01:04:36.495Z,89.70
2023-02-13T01:06:43.673Z,89.50
2023-02-13T01:08:50.498Z,89.10
2023-02-13T01:10:58.309Z,88.10
2023-02-13T01:13:05.430Z,86.60
2023-02-13T01:15:13.629Z,85.50
2023-02-13T01:17:20.793Z,84.40
2023-02-13T01:19:29.581Z,83.60
2023-02-13T01:21:37.592Z,83.10
2023-02-13T01:23:44.710Z,82.30
2023-02-13T01:25:52.666Z,81.20
2023-02-13T01:27:59.869Z,80.20
2023-02-13T01:30:06.871Z,79.80
2023-02-13T01:32:14.248Z,79.40
2023-02-13T01:34:21.390Z,79.40
2023-02-13T01:36:30.672Z,79.20
2023-02-13T01:38:37.609Z,77.90
2023-02-13T01:40:49.494Z,76.70
2023-02-13T01:42:56.310Z,76.30
2023-02-13T01:45:05.534Z,75.20
2023-02-13T01:47:14.050Z,74.50
2023-02-13T01:49:28.767Z,73.60
2023-02-13T01:51:39.684Z,73.20
2023-02-13T01:53:49.727Z,72.80
2023-02-13T01:56:03.902Z,71.80
2023-02-13T01:58:14.529Z,72.10
2023-02-13T02:00:22.126Z,72.00
2023-02-13T02:02:31.113Z,71.70
2023-02-13T02:04:43.243Z,71.40
2023-02-13T02:07:01.431Z,71.40
2023-02-13T02:09:19.988Z,71.30
2023-02-13T02:11:34.382Z,71.00
2023-02-13T02:13:41.775Z,69.60
2023-02-13T02:15:51.702Z,69.10
2023-02-13T02:17:59.615Z,69.10
2023-02-13T02:20:22.413Z,67.70
2023-02-13T02:23:01.044Z,68.40
2023-02-13T02:25:47.130Z,67.60
2023-02-13T02:28:25.087Z,64.70
2023-02-13T02:30:58.783Z,66.00
2023-02-13T02:33:17.385Z,64.00
2023-02-13T02:35:35.575Z,64.70
2023-02-13T02:38:03.443Z,64.60
2023-02-13T02:40:21.633Z,64.40
2023-02-13T02:42:35.889Z,63.50
2023-02-13T02:44:48.625Z,62.80
2023-02-13T02:47:27.347Z,62.20
2023-02-13T02:49:58.147Z,62.30
2023-02-13T02:52:11.212Z,61.60
2023-02-13T02:54:41.127Z,62.20
2023-02-13T02:56:51.993Z,62.50
2023-02-13T02:59:21.293Z,61.90
2023-02-13T03:01:49.316Z,61.70
2023-02-13T03:04:15.757Z,61.30
2023-02-13T03:06:28.768Z,61.00
2023-02-13T03:08:52.532Z,60.20
2023-02-13T03:11:15.999Z,60.40
2023-02-13T03:13:42.003Z,60.30
2023-02-13T03:16:03.554Z,59.80
2023-02-13T03:18:28.898Z,59.70
2023-02-13T03:21:02.153Z,59.40
2023-02-13T03:23:17.309Z,59.10
2023-02-13T03:25:35.303Z,58.50
2023-02-13T03:28:05.830Z,58.40
2023-02-13T03:30:22.342Z,56.50
2023-02-13T03:32:36.108Z,57.60
2023-02-13T03:35:07.764Z,56.80
2023-02-13T03:37:35.222Z,57.00
2023-02-13T03:39:52.646Z,56.30
2023-02-13T03:42:05.251Z,56.10
2023-02-13T03:44:19.400Z,55.00
2023-02-13T03:46:29.292Z,55.10
2023-02-13T03:48:58.917Z,54.60
2023-02-13T03:51:09.669Z,55.00
2023-02-13T03:53:17.870Z,55.00
2023-02-13T03:55:46.028Z,54.70
2023-02-13T03:58:12.121Z,54.80
2023-02-13T04:00:20.892Z,53.80
2023-02-13T04:02:33.542Z,53.40
2023-02-13T04:04:47.282Z,53.70
2023-02-13T04:06:58.308Z,53.20
2023-02-13T04:09:05.587Z,52.80
2023-02-13T04:11:18.606Z,52.90
2023-02-13T04:13:32.034Z,52.70
2023-02-13T04:15:44.694Z,52.30
2023-02-13T04:17:56.855Z,52.20
2023-02-13T04:20:03.877Z,51.50
2023-02-13T04:22:11.058Z,51.80
2023-02-13T04:24:17.874Z,51.20
2023-02-13T04:26:27.871Z,50.30
2023-02-13T04:28:34.976Z,50.60
2023-02-13T04:30:42.429Z,50.70
2023-02-13T04:32:49.368Z,51.10
2023-02-13T04:34:56.448Z,50.80
2023-02-13T04:37:03.272Z,50.10
2023-02-13T04:39:10.403Z,49.30
2023-02-13T04:41:17.329Z,46.80
2023-02-13T04:43:26.407Z,47.20
2023-02-13T04:45:33.687Z,47.50
2023-02-13T04:47:40.718Z,48.00
2023-02-13T04:49:47.593Z,47.80
2023-02-13T04:51:54.773Z,48.00
2023-02-13T04:54:01.655Z,47.50
2023-02-13T04:56:08.991Z,47.00
2023-02-13T04:58:15.805Z,46.90
2023-02-13T05:00:25.958Z,46.10
2023-02-13T05:02:34.168Z,45.80
2023-02-13T05:04:41.279Z,47.00
2023-02-13T05:06:48.319Z,47.40
2023-02-13T05:08:55.400Z,44.70
2023-02-13T05:11:02.275Z,45.90
2023-02-13T05:13:09.353Z,44.70
2023-02-13T05:15:16.228Z,45.90
2023-02-13T05:17:27.272Z,46.20
2023-02-13T05:19:34.331Z,45.10
2023-02-13T05:21:57.973Z,43.30
2023-02-13T05:24:04.819Z,44.40
2023-02-13T05:26:11.954Z,42.80
2023-02-13T05:28:35.209Z,43.60
2023-02-13T05:30:42.221Z,43.30
2023-02-13T05:32:51.926Z,44.10
2023-02-13T05:34:59.014Z,44.40
2023-02-13T05:37:05.985Z,44.10
2023-02-13T05:39:13.115Z,43.70
2023-02-13T05:41:19.923Z,43.60
2023-02-13T05:43:26.813Z,43.10
2023-02-13T05:45:33.894Z,42.60
2023-02-13T05:47:41.063Z,43.20
2023-02-13T05:49:49.952Z,43.00
2023-02-13T05:51:56.822Z,42.10
2023-02-13T05:54:04.365Z,42.40
2023-02-13T05:56:11.297Z,39.90
2023-02-13T05:58:18.518Z,41.90
2023-02-13T06:00:26.015Z,42.40
2023-02-13T06:02:33.304Z,40.80
2023-02-13T06:04:40.622Z,39.60
2023-02-13T06:06:49.446Z,40.70
2023-02-13T06:08:56.316Z,40.80
2023-02-13T06:11:03.501Z,40.80
2023-02-13T06:13:10.319Z,40.80
2023-02-13T06:15:17.502Z,41.20
2023-02-13T06:17:24.330Z,41.60
2023-02-13T06:19:31.764Z,41.10
2023-02-13T06:21:39.048Z,41.40
2023-02-13T06:23:47.712Z,41.80
2023-02-13T06:25:54.484Z,40.00
2023-02-13T06:28:01.833Z,42.10
2023-02-13T06:30:09.310Z,42.70
2023-02-13T06:32:16.541Z,42.00
2023-02-13T06:34:23.419Z,40.90
2023-02-13T06:36:30.651Z,40.30
2023-02-13T06:38:37.779Z,39.30
2023-02-13T06:40:46.576Z,38.90
2023-02-13T06:42:53.372Z,38.80
2023-02-13T06:45:00.414Z,38.60
2023-02-13T06:47:07.278Z,38.90
2023-02-13T06:49:14.508Z,38.40
2023-02-13T06:51:21.486Z,38.50
2023-02-13T06:53:28.362Z,38.10
2023-02-13T06:55:35.593Z,37.70
2023-02-13T06:57:44.823Z,38.00
2023-02-13T06:59:51.597Z,38.10
2023-02-13T07:01:58.775Z,38.20
2023-02-13T07:04:05.806Z,38.50
2023-02-13T07:06:12.973Z,37.50
2023-02-13T07:08:19.968Z,38.60
2023-02-13T07:10:27.091Z,39.90
2023-02-13T07:12:35.554Z,39.30
2023-02-13T07:14:44.753Z,38.90
2023-02-13T07:16:51.504Z,39.00
2023-02-13T07:18:58.674Z,38.80
2023-02-13T07:21:06.686Z,39.00
2023-02-13T07:23:15.050Z,38.60
2023-02-13T07:25:22.280Z,38.40
2023-02-13T07:27:30.330Z,38.20
2023-02-13T07:29:37.153Z,38.30
2023-02-13T07:31:46.000Z,38.20
2023-02-13T07:33:53.465Z,38.70
2023-02-13T07:36:00.852Z,38.70
2023-02-13T07:38:09.270Z,37.70
2023-02-13T07:40:16.698Z,37.40
2023-02-13T07:42:23.474Z,37.00
2023-02-13T07:44:30.345Z,37.00
2023-02-13T07:46:37.330Z,36.60
2023-02-13T07:48:46.027Z,36.60
2023-02-13T07:50:53.162Z,36.40
2023-02-13T07:53:00.765Z,36.10
2023-02-13T07:55:08.454Z,36.60
2023-02-13T07:57:15.230Z,36.40
2023-02-13T07:59:22.361Z,36.90
2023-02-13T08:01:29.292Z,37.70
2023-02-13T08:03:36.466Z,39.40
2023-02-13T08:05:45.138Z,39.20
2023-02-13T08:07:52.324Z,40.60
2023-02-13T08:10:15.678Z,39.90
2023-02-13T08:12:22.811Z,38.80
2023-02-13T08:14:30.553Z,38.30
2023-02-13T08:16:37.659Z,40.40
2023-02-13T08:18:44.460Z,41.50
2023-02-13T08:20:53.431Z,42.20
2023-02-13T08:23:06.812Z,42.40
2023-02-13T08:25:14.133Z,43.30
2023-02-13T08:27:21.014Z,43.90
2023-02-13T08:29:28.138Z,43.90
2023-02-13T08:31:35.294Z,43.00
2023-02-13T08:33:42.623Z,43.40
2023-02-13T08:35:49.579Z,43.00
2023-02-13T08:40:24.624Z,43.20
2023-02-13T08:42:32.841Z,44.30
2023-02-13T08:44:42.166Z,45.50
2023-02-13T08:46:49.712Z,45.30
2023-02-13T08:48:57.452Z,44.30
2023-02-13T08:51:08.321Z,43.00
2023-02-13T08:53:16.984Z,43.30
2023-02-13T08:55:24.071Z,43.40
2023-02-13T08:57:32.331Z,42.70
2023-02-13T08:59:39.196Z,42.30
2023-02-13T09:01:46.687Z,42.10
2023-02-13T09:03:53.717Z,42.80
2023-02-13T09:06:03.867Z,43.20
2023-02-13T09:08:12.685Z,42.80
2023-02-13T09:10:22.118Z,43.00
2023-02-13T09:12:28.998Z,42.70
2023-02-13T09:14:36.281Z,42.50
2023-02-13T09:16:43.195Z,42.30
2023-02-13T09:18:51.483Z,42.00
2023-02-13T09:21:08.687Z,42.10
2023-02-13T09:23:15.862Z,40.70
2023-02-13T09:25:24.448Z,41.20
2023-02-13T09:27:31.595Z,41.80
2023-02-13T09:29:38.533Z,41.80
2023-02-13T09:31:45.878Z,41.90
2023-02-13T09:33:52.955Z,42.00
2023-02-13T09:36:00.293Z,42.30
2023-02-13T09:38:07.107Z,42.50
2023-02-13T09:40:24.697Z,42.60
2023-02-13T09:42:34.971Z,42.50
2023-02-13T09:44:45.040Z,42.80
2023-02-13T09:46:52.527Z,42.60
2023-02-13T09:49:02.787Z,42.80
2023-02-13T09:51:09.739Z,42.70
2023-02-13T09:53:24.878Z,43.00
2023-02-13T09:55:39.069Z,42.90
2023-02-13T09:57:55.062Z,42.90
2023-02-13T10:00:14.320Z,42.80
2023-02-13T10:02:43.568Z,42.50
2023-02-13T10:04:59.988Z,42.40
2023-02-13T10:07:18.055Z,42.20
2023-02-13T10:09:33.380Z,42.50
2023-02-13T10:12:03.301Z,42.80
2023-02-13T10:14:19.281Z,43.00
2023-02-13T10:16:30.510Z,42.90
2023-02-13T10:18:46.145Z,42.80
2023-02-13T10:20:55.987Z,42.70
2023-02-13T10:23:13.043Z,42.60
2023-02-13T10:25:25.450Z,42.80
2023-02-13T10:27:38.521Z,42.80
2023-02-13T10:30:05.399Z,42.80
2023-02-13T10:32:15.894Z,43.00
2023-02-13T10:34:26.481Z,43.50
2023-02-13T10:36:37.161Z,44.00
2023-02-13T10:38:48.011Z,44.40
2023-02-13T10:41:28.225Z,44.80
2023-02-13T10:43:48.870Z,45.10
2023-02-13T10:46:16.664Z,45.50
2023-02-13T10:48:37.032Z,46.00
2023-02-13T10:50:51.012Z,46.10
2023-02-13T10:53:12.896Z,46.50
2023-02-13T10:55:53.556Z,47.20
2023-02-13T10:58:12.619Z,48.00
2023-02-13T11:00:25.566Z,48.70
2023-02-13T11:02:35.885Z,49.20
2023-02-13T11:04:46.287Z,49.90
2023-02-13T11:06:59.262Z,50.30
2023-02-13T11:09:07.828Z,50.90
2023-02-13T11:11:33.135Z,51.70
2023-02-13T11:13:39.900Z,53.20
2023-02-13T11:16:01.432Z,53.70
2023-02-13T11:18:24.984Z,55.40
2023-02-13T11:20:38.410Z,55.00
2023-02-13T11:22:46.100Z,55.00
2023-02-13T11:24:56.970Z,55.00
2023-02-13T11:27:09.782Z,56.10
2023-02-13T11:29:24.388Z,56.60
2023-02-13T11:31:34.735Z,57.00
2023-02-13T11:33:42.489Z,57.40
2023-02-13T11:35:50.107Z,57.20
2023-02-13T11:38:17.129Z,58.50
2023-02-13T11:40:35.221Z,59.30
2023-02-13T11:42:46.494Z,59.30
2023-02-13T11:44:56.184Z,60.00
2023-02-13T11:47:05.845Z,59.90
2023-02-13T11:49:23.604Z,60.20
2023-02-13T11:51:45.224Z,60.90
2023-02-13T11:53:52.201Z,61.60
2023-02-13T11:56:12.549Z,61.40
2023-02-13T11:58:31.940Z,62.10
2023-02-13T12:00:41.141Z,62.80
2023-02-13T12:02:52.568Z,62.60
2023-02-13T12:05:14.765Z,63.40
2023-02-13T12:07:25.320Z,63.40
2023-02-13T12:09:33.633Z,63.50
2023-02-13T12:11:48.401Z,63.70
2023-02-13T12:13:56.132Z,63.80
2023-02-13T12:16:06.557Z,64.00
2023-02-13T12:18:26.525Z,64.20
2023-02-13T12:20:43.328Z,64.60
2023-02-13T12:23:02.651Z,64.80
2023-02-13T12:25:44.130Z,64.90
2023-02-13T12:27:57.669Z,65.30
2023-02-13T12:30:38.392Z,64.80
2023-02-13T12:32:54.568Z,65.50
2023-02-13T12:35:31.653Z,66.40
2023-02-13T12:37:55.832Z,67.70
2023-02-13T12:40:16.996Z,66.90
2023-02-13T12:42:37.638Z,67.10
2023-02-13T12:45:02.128Z,67.70
2023-02-13T12:47:19.699Z,68.70
2023-02-13T12:49:56.685Z,68.30
2023-02-13T12:52:17.737Z,68.80
2023-02-13T12:54:39.662Z,68.70
2023-02-13T12:57:04.204Z,69.20
2023-02-13T12:59:15.484Z,69.10
2023-02-13T13:01:32.200Z,69.10
2023-02-13T13:03:48.942Z,69.50
2023-02-13T13:06:30.840Z,69.00
2023-02-13T13:09:02.906Z,69.70
2023-02-13T13:11:27.136Z,70.60
2023-02-13T13:13:49.472Z,71.00
2023-02-13T13:16:05.562Z,70.70
2023-02-13T13:18:22.317Z,69.90
2023-02-13T13:20:55.708Z,70.00
2023-02-13T13:23:08.733Z,70.00
2023-02-13T13:27:39.992Z,70.00
2023-02-13T13:29:49.267Z,70.30
2023-02-13T13:31:58.937Z,70.10
2023-02-13T13:34:19.660Z,70.30
2023-02-13T13:36:37.747Z,70.50
2023-02-13T13:38:54.966Z,70.70
2023-02-13T13:41:04.863Z,70.80
2023-02-13T13:43:27.046Z,70.70
2023-02-13T13:45:46.006Z,70.80
2023-02-13T13:48:20.114Z,71.30
2023-02-13T13:50:29.557Z,71.60
2023-02-13T13:52:38.469Z,71.40
2023-02-13T13:54:47.751Z,71.00
2023-02-13T13:57:14.699Z,71.20
2023-02-13T13:59:43.945Z,71.00
2023-02-13T14:01:50.807Z,70.90
2023-02-13T14:03:59.793Z,70.60
2023-02-13T14:06:11.260Z,71.20
2023-02-13T14:08:50.609Z,71.60
2023-02-13T14:11:05.422Z,72.20
2023-02-13T14:13:12.601Z,72.10
2023-02-13T14:15:56.071Z,72.10
2023-02-13T14:18:05.107Z,72.60
2023-02-13T14:20:24.832Z,72.50
2023-02-13T14:22:38.980Z,72.70
2023-02-13T14:24:45.953Z,73.00
2023-02-13T14:27:05.074Z,73.10
2023-02-13T14:29:37.229Z,73.60
2023-02-13T14:31:55.162Z,75.10
2023-02-13T14:34:04.447Z,74.60
2023-02-13T14:36:22.925Z,74.80
2023-02-13T14:38:30.637Z,75.10
2023-02-13T14:40:52.683Z,75.50
2023-02-13T14:43:02.455Z,75.90
2023-02-13T14:45:17.783Z,75.80
2023-02-13T14:47:31.675Z,76.10
2023-02-13T14:49:43.514Z,76.40
2023-02-13T14:51:53.000Z,76.60
2023-02-13T14:54:06.075Z,76.80
2023-02-13T14:56:19.784Z,77.70
2023-02-13T14:58:31.647Z,77.80
2023-02-13T15:00:44.415Z,77.20
2023-02-13T15:02:57.172Z,77.50
2023-02-13T15:05:07.681Z,77.20
2023-02-13T15:07:22.745Z,77.00
2023-02-13T15:09:39.919Z,77.70
2023-02-13T15:11:48.482Z,77.60
2023-02-13T15:13:55.256Z,76.80
2023-02-13T15:16:05.375Z,77.30
2023-02-13T15:18:20.317Z,76.80
2023-02-13T15:20:30.723Z,77.00
2023-02-13T15:22:39.853Z,76.90
2023-02-13T15:24:50.495Z,76.80
2023-02-13T15:27:05.223Z,76.50
2023-02-13T15:29:27.737Z,76.90
2023-02-13T15:31:39.197Z,77.10
2023-02-13T15:33:51.035Z,77.20
2023-02-13T15:36:03.026Z,77.30
2023-02-13T15:38:23.108Z,76.90
2023-02-13T15:40:31.776Z,76.80
2023-02-13T15:42:40.748Z,76.80
2023-02-13T15:44:51.362Z,76.90
2023-02-13T15:47:06.428Z,77.10
2023-02-13T15:49:19.545Z,77.30
2023-02-13T15:51:28.009Z,77.20
2023-02-13T15:53:34.881Z,77.40
2023-02-13T15:55:42.020Z,77.60
2023-02-13T15:57:49.040Z,77.90
2023-02-13T15:59:58.224Z,78.30
2023-02-13T16:02:06.300Z,78.50
2023-02-13T16:04:16.934Z,78.60
2023-02-13T16:06:26.934Z,79.10
2023-02-13T16:08:39.592Z,79.20
2023-02-13T16:10:46.671Z,79.30
2023-02-13T16:12:53.697Z,78.80
2023-02-13T16:15:04.010Z,79.30
2023-02-13T16:17:19.888Z,79.30
2023-02-13T16:19:31.938Z,79.40
2023-02-13T16:21:39.118Z,79.50
2023-02-13T16:23:48.499Z,79.80
2023-02-13T16:25:55.888Z,79.60
2023-02-13T16:28:04.448Z,79.60
2023-02-13T16:30:24.827Z,79.60
2023-02-13T16:32:34.587Z,79.80
2023-02-13T16:34:43.134Z,79.30
2023-02-13T16:36:50.433Z,78.70
2023-02-13T16:38:57.312Z,78.50
2023-02-13T16:41:05.615Z,78.60
2023-02-13T16:43:43.992Z,78.10
2023-02-13T16:45:51.064Z,79.10
2023-02-13T16:48:04.743Z,79.10
2023-02-13T16:50:19.567Z,79.40
2023-02-13T16:52:28.629Z,80.00
2023-02-13T16:54:39.498Z,79.80
2023-02-13T16:56:50.420Z,79.60
2023-02-13T16:59:13.220Z,79.50
2023-02-13T17:01:21.104Z,79.10
2023-02-13T17:03:27.938Z,79.00
2023-02-13T17:05:36.867Z,79.00
2023-02-13T17:07:46.038Z,79.00
2023-02-13T17:10:03.668Z,79.30
2023-02-13T17:12:19.095Z,79.60
2023-02-13T17:14:26.221Z,80.00
2023-02-13T17:16:33.202Z,79.90
2023-02-13T17:18:40.277Z,80.00
2023-02-13T17:20:49.359Z,80.00
2023-02-13T17:22:57.865Z,80.10
2023-02-13T17:25:06.383Z,80.30
2023-02-13T17:27:15.509Z,80.60
2023-02-13T17:29:22.432Z,80.70
2023-02-13T17:31:29.688Z,81.00
2023-02-13T17:33:37.768Z,80.90
2023-02-13T17:35:44.949Z,81.10
2023-02-13T17:37:53.410Z,80.80
2023-02-13T17:40:00.795Z,81.20
2023-02-13T17:42:07.977Z,81.30
2023-02-13T17:44:16.902Z,81.20
2023-02-13T17:46:23.978Z,81.40
2023-02-13T17:48:31.107Z,81.70
2023-02-13T17:50:38.492Z,81.60
2023-02-13T17:52:46.289Z,81.90
2023-02-13T17:54:54.859Z,82.00
2023-02-13T17:57:02.291Z,82.40
2023-02-13T17:59:09.367Z,82.50
2023-02-13T18:01:16.534Z,82.70
2023-02-13T18:03:23.587Z,82.90
2023-02-13T18:05:32.301Z,82.80
2023-02-13T18:07:40.551Z,82.70
2023-02-13T18:09:48.156Z,82.60
2023-02-13T18:12:05.020Z,82.50
2023-02-13T18:14:12.597Z,83.00
2023-02-13T18:16:19.829Z,83.70
2023-02-13T18:18:27.057Z,83.80
2023-02-13T18:20:34.076Z,86.70
2023-02-13T18:22:41.166Z,85.90
2023-02-13T18:24:48.398Z,86.80
2023-02-13T18:26:57.166Z,86.50
2023-02-13T18:29:04.148Z,85.60
2023-02-13T18:31:13.478Z,85.50
2023-02-13T18:33:20.642Z,86.10
2023-02-13T18:35:27.851Z,86.30
2023-02-13T18:37:34.667Z,85.90
2023-02-13T18:39:41.903Z,85.40
2023-02-13T18:41:49.384Z,85.30
2023-02-13T18:44:00.254Z,85.50
2023-02-13T18:46:07.640Z,86.20
2023-02-13T18:48:14.472Z,86.20
2023-02-13T18:50:21.702Z,86.60
2023-02-13T18:52:28.519Z,86.60
2023-02-13T18:54:35.548Z,87.20
2023-02-13T18:56:42.425Z,86.90
2023-02-13T18:58:49.756Z,86.90
2023-02-13T19:00:58.513Z,87.00
2023-02-13T19:03:05.970Z,87.40
2023-02-13T19:05:13.199Z,87.00
2023-02-13T19:07:20.158Z,88.00
2023-02-13T19:09:26.996Z,88.90
2023-02-13T19:11:35.407Z,89.00
2023-02-13T19:13:42.333Z,88.90
2023-02-13T19:15:49.523Z,88.60
2023-02-13T19:17:58.490Z,88.50
2023-02-13T19:20:05.467Z,88.50
2023-02-13T19:22:12.340Z,88.10
2023-02-13T19:24:19.725Z,88.10
2023-02-13T19:26:28.034Z,88.50
2023-02-13T19:28:35.168Z,88.30
2023-02-13T19:30:42.212Z,88.50
2023-02-13T19:32:49.424Z,88.50
2023-02-13T19:34:58.553Z,88.80
2023-02-13T19:37:05.428Z,89.40
2023-02-13T19:39:13.483Z,88.80
2023-02-13T19:41:21.079Z,88.60
2023-02-13T19:43:28.204Z,88.40
2023-02-13T19:45:34.923Z,88.90
2023-02-13T19:47:42.158Z,90.40
2023-02-13T19:49:49.186Z,89.70
2023-02-13T19:51:57.649Z,90.20
2023-02-13T19:54:06.324Z,90.40
2023-02-13T19:56:13.957Z,90.30
2023-02-13T19:58:21.242Z,89.50
2023-02-13T20:00:28.217Z,89.20
2023-02-13T20:02:37.906Z,89.50
2023-02-13T20:04:44.988Z,89.00
2023-02-13T20:06:58.635Z,89.20
2023-02-13T20:09:11.390Z,89.40
2023-02-13T20:11:19.895Z,91.00
2023-02-13T20:13:26.719Z,91.30
2023-02-13T20:15:34.666Z,91.00
2023-02-13T20:17:41.746Z,91.10
2023-02-13T20:19:48.985Z,90.80
2023-02-13T20:21:55.850Z,90.50
2023-02-13T20:24:03.970Z,90.20
2023-02-13T20:26:14.756Z,89.80
2023-02-13T20:28:22.104Z,90.20
2023-02-13T20:30:29.053Z,89.50
2023-02-13T20:32:36.341Z,89.50
2023-02-13T20:34:58.462Z,90.00
2023-02-13T20:37:06.450Z,90.60
2023-02-13T20:39:17.067Z,90.80
2023-02-13T20:41:27.516Z,90.40
2023-02-13T20:43:34.390Z,90.00
2023-02-13T20:45:41.649Z,90.00
2023-02-13T20:47:49.014Z,89.80
2023-02-13T20:49:56.152Z,89.80
2023-02-13T20:52:02.912Z,90.10
2023-02-13T20:54:10.296Z,89.90
2023-02-13T20:56:18.711Z,90.40
2023-02-13T20:58:27.547Z,90.90
2023-02-13T21:00:34.517Z,91.00
2023-02-13T21:02:41.691Z,90.90
2023-02-13T21:04:48.663Z,90.60
2023-02-13T21:06:55.754Z,90.30
2023-02-13T21:09:03.215Z,90.00
2023-02-13T21:11:11.799Z,90.00
2023-02-13T21:13:18.669Z,90.10
2023-02-13T21:15:27.592Z,90.30
2023-02-13T21:17:34.528Z,90.60
2023-02-13T21:19:41.751Z,90.40
2023-02-13T21:21:49.034Z,90.70
2023-02-13T21:23:57.596Z,90.70
2023-02-13T21:26:06.480Z,90.70
2023-02-13T21:28:13.601Z,90.70
2023-02-13T21:30:20.575Z,90.20
2023-02-13T21:32:29.550Z,89.90
2023-02-13T21:34:36.532Z,89.80
2023-02-13T21:36:43.862Z,90.30
2023-02-13T21:38:50.796Z,90.60
2023-02-13T21:40:58.170Z,90.30
2023-02-13T21:43:05.210Z,90.40
2023-02-13T21:45:14.081Z,90.40
2023-02-13T21:47:22.119Z,90.20
2023-02-13T21:49:31.262Z,90.20
2023-02-13T21:51:39.332Z,90.00
2023-02-13T21:53:46.957Z,90.10
2023-02-13T21:55:53.781Z,89.90
2023-02-13T21:58:00.962Z,90.10
2023-02-13T22:00:11.172Z,90.20
2023-02-13T22:02:21.234Z,90.30
2023-02-13T22:04:29.932Z,90.50
2023-02-13T22:06:39.309Z,90.00
2023-02-13T22:08:46.344Z,90.10
2023-02-13T22:11:00.045Z,90.50
2023-02-13T22:13:07.573Z,91.20
2023-02-13T22:15:14.854Z,91.60
2023-02-13T22:17:22.360Z,91.80
2023-02-13T22:19:31.321Z,91.70
2023-02-13T22:21:39.064Z,91.10
2023-02-13T22:23:47.472Z,90.70
2023-02-13T22:25:54.510Z,90.60
2023-02-13T22:28:01.532Z,90.60
2023-02-13T22:30:09.505Z,90.50
2023-02-13T22:32:16.832Z,90.20
2023-02-13T22:34:23.793Z,90.10
2023-02-13T22:36:32.621Z,90.20
2023-02-13T22:38:40.390Z,90.20
2023-02-13T22:40:47.542Z,90.30
2023-02-13T22:42:56.000Z,90.30
2023-02-13T22:45:03.184Z,90.40
2023-02-13T22:47:10.052Z,90.30
2023-02-13T22:49:17.437Z,89.90
2023-02-13T22:51:26.203Z,89.70
2023-02-13T22:53:35.238Z,89.70
2023-02-13T22:55:42.105Z,89.60
2023-02-13T22:57:50.971Z,89.60
2023-02-13T22:59:57.803Z,89.60
2023-02-13T23:02:04.827Z,89.70
2023-02-13T23:04:11.680Z,89.90
2023-02-13T23:06:19.622Z,89.90
2023-02-13T23:08:26.417Z,89.80
2023-02-13T23:10:35.393Z,89.90
2023-02-13T23:12:42.060Z,89.90
2023-02-13T23:14:48.933Z,90.30
2023-02-13T23:17:21.252Z,90.20
2023-02-13T23:19:28.540Z,90.70
2023-02-13T23:21:35.774Z,91.20
2023-02-13T23:23:42.597Z,91.10
2023-02-13T23:25:51.416Z,91.00
2023-02-13T23:27:59.284Z,91.00
2023-02-13T23:30:07.425Z,91.10
2023-02-13T23:32:14.485Z,91.10
2023-02-13T23:34:21.634Z,90.90
2023-02-13T23:36:28.557Z,91.60
2023-02-13T23:38:35.476Z,91.80
2023-02-13T23:40:42.250Z,91.70
2023-02-13T23:42:51.067Z,91.70
2023-02-13T23:44:57.840Z,91.80
2023-02-13T23:47:05.172Z,91.70
2023-02-13T23:49:12.083Z,91.50
2023-02-13T23:51:19.386Z,91.40
2023-02-13T23:53:26.464Z,91.10
2023-02-13T23:55:33.804Z,90.50
2023-02-13T23:57:40.571Z,90.70
2023-02-13T23:59:49.597Z,90.50
